Time;durP1;ratioP1;P1;durP2;ratioP2;P2;SDS_P1;SDS_P2;PMS_P1;PMS_P2;Temp;Humidity;BMP_temperature;BMP_pressure;BME280_temperature;BME280_humidity;BME280_pressure;Samples;Min_cycle;Max_cycle;Signal;HPM_P1;HPM_P2
2023/05/02 00:00:44;;;;;;;7.27;6.67;;;14.00;47.40;;;;;;6237370;28;20245;-79
2023/05/02 00:03:48;;;;;;;6.50;6.10;;;14.00;47.50;;;;;;6219937;28;20242;-80
2023/05/02 00:06:53;;;;;;;6.27;5.87;;;14.00;47.30;;;;;;6212390;28;20258;-78
2023/05/02 00:09:56;;;;;;;6.50;5.97;;;13.90;47.70;;;;;;6212510;28;20266;-81
2023/05/02 00:13:00;;;;;;;6.87;6.27;;;13.90;47.80;;;;;;6212232;28;20306;-83
2023/05/02 00:16:03;;;;;;;7.10;6.40;;;13.90;47.70;;;;;;6217561;28;20243;-80
2023/05/02 00:19:06;;;;;;;6.97;6.57;;;13.90;47.30;;;;;;6225612;28;20824;-80
2023/05/02 00:22:11;;;;;;;6.83;6.43;;;13.90;47.30;;;;;;6233031;28;20231;-79
2023/05/02 00:25:15;;;;;;;7.33;6.77;;;13.90;47.60;;;;;;6212985;28;20239;-77
2023/05/02 00:28:18;;;;;;;7.00;6.40;;;13.80;47.80;;;;;;6207945;28;20248;-80
2023/05/02 00:31:21;;;;;;;6.80;6.23;;;13.70;47.80;;;;;;6208850;28;20240;-80
2023/05/02 00:34:31;;;;;;;7.13;6.63;;;13.70;47.70;;;;;;6220486;28;20653;-79
2023/05/02 00:37:35;;;;;;;7.03;6.53;;;13.70;47.90;;;;;;6234059;28;20223;-81
2023/05/02 00:40:46;;;;;;;6.83;6.23;;;13.70;48.00;;;;;;6210421;28;20262;-79
2023/05/02 00:43:49;;;;;;;6.70;6.30;;;13.60;48.10;;;;;;6217000;28;20238;-81
2023/05/02 00:46:53;;;;;;;6.73;6.20;;;13.60;47.70;;;;;;6226259;28;20235;-80
2023/05/02 00:49:56;;;;;;;6.97;6.40;;;13.70;47.70;;;;;;6212676;28;21026;-77
2023/05/02 00:53:03;;;;;;;6.67;6.03;;;13.60;48.10;;;;;;6215325;28;20290;-80
2023/05/02 00:56:07;;;;;;;6.70;6.30;;;13.60;48.20;;;;;;6201829;28;20282;-80
2023/05/02 00:59:11;;;;;;;6.43;5.93;;;13.50;48.60;;;;;;6216034;28;20256;-78
2023/05/02 01:02:30;;;;;;;6.43;6.13;;;13.50;49.00;;;;;;6210979;28;20242;-80
2023/05/02 01:05:43;;;;;;;7.07;6.67;;;13.40;49.10;;;;;;6212485;28;20232;-82
2023/05/02 01:08:54;;;;;;;6.77;6.27;;;13.30;49.50;;;;;;6211540;28;20227;-82
2023/05/02 01:12:04;;;;;;;7.47;6.97;;;13.30;49.80;;;;;;6221416;28;20239;-78
2023/05/02 01:15:12;;;;;;;6.67;6.20;;;13.30;50.20;;;;;;6232777;28;20234;-82
2023/05/02 01:18:18;;;;;;;6.77;6.40;;;13.20;50.70;;;;;;6224991;28;20377;-80
2023/05/02 01:21:22;;;;;;;7.50;6.90;;;13.10;51.20;;;;;;6241354;28;20246;-80
2023/05/02 01:24:32;;;;;;;7.57;6.97;;;13.10;51.70;;;;;;6222988;28;20719;-82
2023/05/02 01:27:46;;;;;;;7.60;7.10;;;13.10;51.60;;;;;;6241147;28;20223;-80
2023/05/02 01:30:53;;;;;;;6.43;6.03;;;13.10;52.20;;;;;;6235289;28;20246;-80
2023/05/02 01:33:58;;;;;;;7.63;7.03;;;13.10;52.30;;;;;;6224925;28;20243;-80
2023/05/02 01:37:03;;;;;;;7.37;6.77;;;13.10;52.60;;;;;;6237035;28;20385;-81
2023/05/02 01:40:09;;;;;;;7.07;6.47;;;13.10;52.80;;;;;;6245886;28;20237;-79
2023/05/02 01:43:13;;;;;;;7.60;6.90;;;13.10;52.70;;;;;;6219516;28;20330;-81
2023/05/02 01:46:20;;;;;;;7.30;6.80;;;13.10;53.00;;;;;;6256781;28;20727;-79
2023/05/02 01:49:25;;;;;;;7.33;6.73;;;13.10;53.60;;;;;;6248430;28;20229;-80
2023/05/02 01:52:30;;;;;;;6.90;6.30;;;13.00;53.70;;;;;;6244305;28;20800;-81
2023/05/02 01:55:36;;;;;;;7.47;6.87;;;13.00;53.70;;;;;;6229551;28;20240;-81
2023/05/02 01:58:40;;;;;;;7.07;6.40;;;12.90;54.20;;;;;;6229898;28;20801;-80
2023/05/02 02:01:45;;;;;;;7.43;6.83;;;12.90;54.20;;;;;;6237097;28;20234;-82
2023/05/02 02:04:49;;;;;;;8.47;7.00;;;12.80;54.40;;;;;;6229448;28;20237;-79
2023/05/02 02:07:53;;;;;;;6.90;6.40;;;12.80;54.40;;;;;;6229994;28;20239;-81
2023/05/02 02:11:00;;;;;;;10.17;6.17;;;12.80;54.80;;;;;;6236656;28;20252;-81
2023/05/02 02:14:07;;;;;;;6.90;6.40;;;12.70;55.00;;;;;;6248532;28;20717;-82
2023/05/02 02:17:16;;;;;;;7.37;6.87;;;12.70;55.20;;;;;;6237555;28;20238;-80
2023/05/02 02:20:21;;;;;;;6.83;6.23;;;12.70;55.20;;;;;;6237351;28;20237;-80
2023/05/02 02:23:28;;;;;;;7.63;7.03;;;12.70;55.10;;;;;;6237729;28;20241;-80
2023/05/02 02:26:31;;;;;;;6.80;6.30;;;12.50;55.30;;;;;;6239091;28;20867;-80
2023/05/02 02:29:34;;;;;;;6.90;6.47;;;12.50;55.60;;;;;;6244435;28;20233;-80
2023/05/02 02:32:39;;;;;;;7.07;6.47;;;12.50;55.60;;;;;;6245532;28;20246;-81
2023/05/02 02:35:44;;;;;;;7.40;6.80;;;12.50;55.90;;;;;;6241169;28;20725;-80
2023/05/02 02:38:56;;;;;;;7.10;6.70;;;12.40;56.00;;;;;;6225024;28;20245;-79
2023/05/02 02:42:10;;;;;;;8.40;6.83;;;12.30;56.10;;;;;;6248002;28;20247;-81
2023/05/02 02:45:24;;;;;;;7.53;6.17;;;12.20;56.50;;;;;;6219062;28;20810;-80
2023/05/02 02:48:35;;;;;;;6.83;6.40;;;12.10;56.40;;;;;;6237098;28;20230;-80
2023/05/02 02:51:51;;;;;;;6.83;6.30;;;12.10;56.40;;;;;;6222347;28;20243;-80
2023/05/02 02:55:00;;;;;;;6.93;6.33;;;12.00;56.50;;;;;;6224761;28;20238;-80
2023/05/02 02:58:18;;;;;;;6.60;6.20;;;12.00;56.70;;;;;;6234852;28;20237;-82
2023/05/02 03:01:24;;;;;;;6.70;6.20;;;11.90;56.70;;;;;;6215243;28;20246;-79
2023/05/02 03:04:30;;;;;;;6.07;5.57;;;11.90;57.10;;;;;;6206679;28;20309;-81
2023/05/02 03:07:33;;;;;;;6.60;6.10;;;11.80;57.20;;;;;;6221426;28;20231;-81
2023/05/02 03:10:37;;;;;;;6.50;6.03;;;11.70;57.10;;;;;;6208640;28;20325;-81
2023/05/02 03:13:40;;;;;;;6.40;6.10;;;11.70;57.30;;;;;;6216315;28;20231;-81
2023/05/02 03:16:43;;;;;;;6.37;6.00;;;11.70;57.30;;;;;;6209784;28;20232;-80
2023/05/02 03:19:48;;;;;;;7.93;7.33;;;11.60;57.50;;;;;;6200750;28;20266;-81
2023/05/02 03:22:51;;;;;;;8.93;8.13;;;11.60;57.70;;;;;;6225121;28;20235;-80
2023/05/02 03:25:55;;;;;;;9.00;8.10;;;11.50;57.90;;;;;;6231071;28;20236;-81
2023/05/02 03:28:58;;;;;;;12.50;7.00;;;11.50;58.00;;;;;;6221974;28;20235;-81
2023/05/02 03:32:01;;;;;;;6.70;6.20;;;11.50;58.00;;;;;;6190196;28;21052;-79
2023/05/02 03:35:08;;;;;;;6.67;5.90;;;11.40;58.10;;;;;;6205585;28;20714;-80
2023/05/02 03:38:11;;;;;;;6.63;6.10;;;11.40;58.30;;;;;;6212085;28;20243;-81
2023/05/02 03:41:14;;;;;;;6.30;5.90;;;11.30;58.90;;;;;;6213974;28;20242;-80
2023/05/02 03:44:17;;;;;;;5.70;5.30;;;11.30;58.70;;;;;;6221371;28;20250;-80
2023/05/02 03:47:21;;;;;;;6.13;5.60;;;11.30;58.80;;;;;;6207958;28;20254;-78
2023/05/02 03:50:27;;;;;;;5.50;5.20;;;11.10;59.20;;;;;;6232784;28;20278;-78
2023/05/02 03:53:31;;;;;;;5.93;5.60;;;11.10;59.30;;;;;;6234788;28;20258;-78
2023/05/02 03:56:34;;;;;;;9.23;6.10;;;11.10;59.50;;;;;;6237714;28;20233;-79
2023/05/02 03:59:40;;;;;;;6.50;6.00;;;11.10;59.60;;;;;;6258452;28;20235;-79
2023/05/02 04:02:43;;;;;;;6.50;6.10;;;11.10;59.70;;;;;;6247602;28;20234;-78
2023/05/02 04:05:48;;;;;;;8.90;6.33;;;11.00;60.00;;;;;;6244624;28;20258;-79
2023/05/02 04:08:51;;;;;;;8.40;6.57;;;11.00;60.00;;;;;;6232508;28;20730;-80
2023/05/02 04:11:55;;;;;;;6.93;6.47;;;11.00;60.30;;;;;;6224064;28;20239;-79
2023/05/02 04:14:59;;;;;;;7.40;6.70;;;11.00;60.40;;;;;;6240708;28;20231;-80
2023/05/02 04:18:02;;;;;;;7.00;6.37;;;11.00;60.40;;;;;;6233144;28;20239;-79
2023/05/02 04:21:09;;;;;;;6.57;6.17;;;11.00;60.60;;;;;;6237968;28;20742;-82
2023/05/02 04:24:13;;;;;;;6.80;6.30;;;11.00;60.90;;;;;;6234697;28;20276;-78
2023/05/02 04:27:16;;;;;;;6.83;6.13;;;11.00;60.90;;;;;;6227078;28;20235;-81
2023/05/02 04:30:20;;;;;;;5.77;5.27;;;11.00;61.20;;;;;;6235215;28;20300;-78
2023/05/02 04:33:23;;;;;;;5.80;5.50;;;11.00;61.40;;;;;;6229468;28;20340;-80
2023/05/02 04:36:28;;;;;;;6.73;6.03;;;11.00;61.20;;;;;;6228561;28;20243;-79
2023/05/02 04:39:31;;;;;;;7.37;5.80;;;11.00;61.40;;;;;;6229974;28;20713;-80
2023/05/02 04:42:34;;;;;;;6.50;5.90;;;11.10;61.30;;;;;;6231781;28;20230;-79
2023/05/02 04:45:37;;;;;;;7.43;6.07;;;11.10;61.20;;;;;;6216672;28;20237;-78
2023/05/02 04:48:41;;;;;;;7.63;5.67;;;11.10;61.30;;;;;;6215169;28;20408;-78
2023/05/02 04:51:46;;;;;;;7.37;5.57;;;11.20;60.80;;;;;;6205160;28;20239;-78
2023/05/02 04:54:49;;;;;;;6.80;5.83;;;11.30;60.60;;;;;;6208364;28;20295;-78
2023/05/02 04:57:52;;;;;;;6.40;5.80;;;11.30;60.60;;;;;;6214148;28;20769;-77
2023/05/02 05:01:01;;;;;;;7.67;5.40;;;11.50;60.10;;;;;;6207162;28;20231;-78
2023/05/02 05:04:36;;;;;;;5.67;5.27;;;11.50;60.10;;;;;;6200473;28;20942;-77
2023/05/02 05:07:41;;;;;;;6.43;5.70;;;11.70;59.80;;;;;;6234357;28;20234;-79
2023/05/02 05:10:44;;;;;;;6.10;5.47;;;11.70;59.70;;;;;;6232571;28;20256;-79
2023/05/02 05:13:48;;;;;;;10.47;6.30;;;11.80;59.60;;;;;;6230482;28;20715;-81
2023/05/02 05:16:51;;;;;;;6.80;6.30;;;11.90;59.60;;;;;;6238994;28;20333;-80
2023/05/02 05:19:54;;;;;;;6.73;6.10;;;11.80;59.60;;;;;;6231735;28;20243;-78
2023/05/02 05:22:58;;;;;;;7.63;6.47;;;11.80;59.70;;;;;;6234452;28;20763;-79
2023/05/02 05:26:09;;;;;;;7.23;6.57;;;11.70;59.70;;;;;;6237617;28;20271;-80
2023/05/02 05:29:12;;;;;;;8.90;6.47;;;11.70;59.80;;;;;;6236101;28;20695;-79
2023/05/02 05:32:15;;;;;;;6.53;5.93;;;11.70;59.80;;;;;;6236682;28;20753;-80
2023/05/02 05:35:18;;;;;;;7.73;6.50;;;11.70;60.00;;;;;;6231056;28;20237;-79
2023/05/02 05:38:23;;;;;;;6.57;6.13;;;11.70;60.40;;;;;;6237621;28;20614;-80
2023/05/02 05:41:26;;;;;;;8.03;6.20;;;11.70;60.50;;;;;;6234377;28;20238;-78
2023/05/02 05:44:30;;;;;;;11.07;7.07;;;12.00;59.90;;;;;;6238082;28;20621;-81
2023/05/02 05:47:34;;;;;;;6.97;6.20;;;12.30;59.30;;;;;;6238775;28;20474;-81
2023/05/02 05:50:37;;;;;;;7.70;5.90;;;12.50;58.80;;;;;;6228271;28;20269;-79
2023/05/02 05:53:42;;;;;;;7.00;6.40;;;12.80;58.50;;;;;;6242771;28;20775;-79
2023/05/02 05:56:45;;;;;;;7.27;6.57;;;13.00;58.30;;;;;;6234562;28;20285;-81
2023/05/02 05:59:48;;;;;;;7.00;6.43;;;13.10;58.00;;;;;;6237929;28;20246;-80
2023/05/02 06:02:52;;;;;;;6.83;6.23;;;13.30;57.70;;;;;;6242303;28;20247;-80
2023/05/02 06:05:55;;;;;;;8.33;6.60;;;13.30;57.80;;;;;;6236366;28;20247;-81
2023/05/02 06:08:59;;;;;;;7.40;6.73;;;13.50;57.80;;;;;;6235239;28;20239;-77
2023/05/02 06:12:02;;;;;;;7.37;6.80;;;13.60;57.20;;;;;;6234981;28;20243;-78
2023/05/02 06:15:06;;;;;;;7.70;6.97;;;13.60;57.40;;;;;;6225695;28;20230;-79
2023/05/02 06:18:09;;;;;;;8.17;6.47;;;13.70;57.20;;;;;;6231353;28;20231;-79
2023/05/02 06:21:12;;;;;;;12.07;7.27;;;13.90;57.20;;;;;;6217823;28;20300;-79
2023/05/02 06:24:17;;;;;;;8.00;7.20;;;14.00;57.10;;;;;;6228998;28;20301;-79
2023/05/02 06:27:20;;;;;;;9.53;7.97;;;14.10;56.90;;;;;;6235030;28;20254;-80
2023/05/02 06:30:23;;;;;;;7.50;6.83;;;14.10;57.30;;;;;;6240485;28;20263;-78
2023/05/02 06:33:26;;;;;;;7.97;7.17;;;14.00;57.50;;;;;;6235211;28;20509;-80
2023/05/02 06:36:30;;;;;;;9.87;7.30;;;14.10;57.70;;;;;;6235661;28;20226;-80
2023/05/02 06:39:35;;;;;;;8.03;7.33;;;14.20;57.60;;;;;;6234183;28;20241;-81
2023/05/02 06:42:38;;;;;;;8.60;7.90;;;14.40;57.30;;;;;;6227815;28;20398;-81
2023/05/02 06:45:42;;;;;;;9.43;8.53;;;14.60;57.00;;;;;;6237405;28;20695;-79
2023/05/02 06:48:45;;;;;;;10.23;8.90;;;14.60;57.20;;;;;;6243280;28;20234;-80
2023/05/02 06:51:48;;;;;;;10.63;9.67;;;14.80;57.20;;;;;;6245324;28;20281;-79
2023/05/02 06:54:53;;;;;;;10.77;9.60;;;14.90;56.90;;;;;;6236548;28;20267;-79
2023/05/02 06:57:56;;;;;;;12.73;9.70;;;14.60;57.50;;;;;;6236628;28;20235;-81
2023/05/02 07:00:59;;;;;;;11.33;9.20;;;14.70;57.40;;;;;;6242177;28;21337;-78
2023/05/02 07:04:03;;;;;;;9.10;8.30;;;14.70;57.30;;;;;;6237896;28;20321;-81
2023/05/02 07:07:07;;;;;;;9.80;8.87;;;14.50;57.70;;;;;;6250687;28;20238;-79
2023/05/02 07:10:12;;;;;;;9.17;8.20;;;14.00;59.00;;;;;;6226241;28;20239;-78
2023/05/02 07:13:15;;;;;;;12.97;9.10;;;13.90;59.10;;;;;;6236445;28;20234;-79
2023/05/02 07:16:18;;;;;;;9.87;8.50;;;13.80;59.70;;;;;;6238869;28;20624;-76
2023/05/02 07:19:24;;;;;;;9.93;9.13;;;13.80;59.70;;;;;;6227384;28;20699;-81
2023/05/02 07:22:27;;;;;;;9.70;8.80;;;14.00;59.40;;;;;;6229903;28;20230;-78
2023/05/02 07:25:32;;;;;;;9.37;8.57;;;13.90;59.70;;;;;;6231260;28;20317;-80
2023/05/02 07:28:35;;;;;;;8.13;7.43;;;13.90;59.80;;;;;;6234406;28;20231;-78
2023/05/02 07:31:38;;;;;;;9.13;8.33;;;13.90;59.90;;;;;;6234738;28;20962;-80
2023/05/02 07:34:42;;;;;;;8.57;7.87;;;13.90;60.00;;;;;;6229443;28;20266;-77
2023/05/02 07:37:45;;;;;;;8.40;7.60;;;13.90;60.20;;;;;;6233519;28;20240;-79
2023/05/02 07:40:50;;;;;;;8.53;7.73;;;14.10;60.10;;;;;;6225281;28;20747;-80
2023/05/02 07:43:53;;;;;;;9.30;8.40;;;14.40;59.80;;;;;;6239902;28;20239;-80
2023/05/02 07:46:56;;;;;;;8.47;7.47;;;14.50;59.30;;;;;;6231774;28;20234;-79
2023/05/02 07:50:00;;;;;;;8.27;7.47;;;14.60;59.00;;;;;;6233894;28;20225;-80
2023/05/02 07:53:03;;;;;;;9.27;8.63;;;14.70;58.90;;;;;;6215350;28;20239;-79
2023/05/02 07:56:08;;;;;;;7.37;6.77;;;14.60;59.10;;;;;;6226361;28;20927;-81
2023/05/02 07:59:11;;;;;;;7.70;7.00;;;14.30;59.60;;;;;;6242258;28;20545;-81
2023/05/02 08:02:18;;;;;;;7.50;6.73;;;14.20;60.10;;;;;;6244126;28;20250;-77
2023/05/02 08:05:22;;;;;;;7.10;6.50;;;14.10;59.80;;;;;;6235286;28;20238;-78
2023/05/02 08:08:26;;;;;;;6.30;5.90;;;14.00;60.30;;;;;;6209715;28;20235;-79
2023/05/02 08:11:30;;;;;;;7.27;6.57;;;13.90;60.70;;;;;;6215490;28;20323;-78
2023/05/02 08:14:34;;;;;;;7.37;6.70;;;14.00;60.60;;;;;;6235445;28;20245;-76
2023/05/02 08:17:37;;;;;;;7.10;6.50;;;14.10;60.50;;;;;;6238385;28;20245;-79
2023/05/02 08:20:40;;;;;;;7.53;7.03;;;14.00;60.70;;;;;;6246311;28;20247;-78
2023/05/02 08:23:44;;;;;;;7.93;7.30;;;14.00;60.80;;;;;;6243000;28;20235;-78
2023/05/02 08:26:48;;;;;;;7.97;7.27;;;14.00;61.00;;;;;;6261280;28;20233;-76
2023/05/02 08:29:51;;;;;;;7.27;6.60;;;14.00;61.20;;;;;;6267397;28;20223;-78
2023/05/02 08:32:54;;;;;;;7.40;6.70;;;14.20;60.90;;;;;;6271126;28;20253;-76
2023/05/02 08:35:57;;;;;;;6.67;6.17;;;14.40;61.00;;;;;;6277207;28;20223;-79
2023/05/02 08:39:00;;;;;;;6.30;5.90;;;14.40;60.50;;;;;;6263213;28;20282;-79
2023/05/02 08:42:08;;;;;;;7.37;6.77;;;14.50;60.50;;;;;;6258847;28;20236;-78
2023/05/02 08:45:12;;;;;;;6.60;6.00;;;14.60;59.80;;;;;;6259866;28;20231;-77
2023/05/02 08:48:19;;;;;;;6.00;5.60;;;14.50;59.70;;;;;;6264479;28;20261;-76
2023/05/02 08:51:24;;;;;;;6.10;5.70;;;14.40;59.70;;;;;;6260271;28;20302;-80
2023/05/02 08:54:28;;;;;;;5.10;4.90;;;14.20;60.30;;;;;;6238641;28;20237;-80
2023/05/02 08:57:32;;;;;;;5.70;5.20;;;14.10;60.50;;;;;;6227186;28;20238;-78
2023/05/02 09:00:39;;;;;;;5.43;5.20;;;14.10;61.00;;;;;;6239798;28;20238;-79
2023/05/02 09:03:44;;;;;;;5.30;5.00;;;14.10;61.20;;;;;;6238842;28;20600;-79
2023/05/02 09:06:47;;;;;;;6.10;5.70;;;14.10;61.30;;;;;;6244337;28;20238;-78
2023/05/02 09:09:50;;;;;;;5.63;5.37;;;14.20;61.00;;;;;;6243595;28;20234;-80
2023/05/02 09:12:55;;;;;;;6.07;5.53;;;14.20;60.80;;;;;;6232912;28;20405;-78
2023/05/02 09:15:59;;;;;;;5.97;5.60;;;14.20;60.70;;;;;;6232676;28;20239;-78
2023/05/02 09:19:02;;;;;;;6.37;5.87;;;14.10;61.00;;;;;;6241830;28;20318;-80
2023/05/02 09:22:06;;;;;;;5.17;4.97;;;14.20;61.00;;;;;;6240054;28;20235;-78
2023/05/02 09:25:10;;;;;;;5.87;5.37;;;14.30;61.00;;;;;;6261154;28;20233;-77
2023/05/02 09:28:14;;;;;;;5.60;5.20;;;14.30;60.90;;;;;;6271936;28;20227;-76
2023/05/02 09:31:18;;;;;;;5.20;5.00;;;14.50;60.30;;;;;;6266480;28;20234;-78
2023/05/02 09:35:02;;;;;;;4.73;4.53;;;14.50;60.50;;;;;;6263407;28;20233;-76
2023/05/02 09:38:20;;;;;;;6.30;5.87;;;14.30;60.70;;;;;;6274371;28;20217;-77
2023/05/02 09:41:23;;;;;;;5.80;5.40;;;14.00;61.70;;;;;;6267091;28;20238;-79
2023/05/02 09:44:36;;;;;;;5.57;5.27;;;13.90;61.90;;;;;;6258925;28;20413;-77
2023/05/02 09:47:41;;;;;;;5.87;5.50;;;13.80;62.60;;;;;;6242522;28;20330;-78
2023/05/02 09:50:44;;;;;;;5.87;5.57;;;13.70;62.80;;;;;;6232191;28;20237;-79
2023/05/02 09:53:48;;;;;;;7.13;5.03;;;13.80;62.60;;;;;;6239574;28;20235;-79
2023/05/02 09:56:55;;;;;;;5.40;5.00;;;13.90;62.80;;;;;;6238171;28;20295;-79
2023/05/02 10:00:00;;;;;;;4.80;4.60;;;14.00;62.40;;;;;;6235939;28;20250;-80
2023/05/02 10:03:06;;;;;;;5.63;4.40;;;14.10;62.20;;;;;;6224203;28;20250;-79
2023/05/02 10:06:09;;;;;;;4.70;4.40;;;14.30;61.30;;;;;;6233394;28;20243;-81
2023/05/02 10:09:15;;;;;;;4.87;4.57;;;14.10;61.80;;;;;;6242568;28;20254;-82
2023/05/02 10:12:26;;;;;;;3.73;3.63;;;14.30;61.50;;;;;;6241437;28;20237;-82
2023/05/02 10:15:32;;;;;;;4.60;4.40;;;14.50;61.10;;;;;;6232253;28;20239;-77
2023/05/02 10:18:42;;;;;;;4.27;4.07;;;14.60;60.90;;;;;;6217237;28;20236;-76
2023/05/02 10:21:46;;;;;;;4.57;4.43;;;14.70;60.60;;;;;;6206939;28;20310;-76
2023/05/02 10:24:49;;;;;;;4.60;4.30;;;14.80;60.60;;;;;;6206496;28;20258;-79
2023/05/02 10:27:53;;;;;;;4.70;4.50;;;14.60;60.80;;;;;;6210997;28;20611;-81
2023/05/02 10:31:00;;;;;;;5.20;5.00;;;14.50;61.40;;;;;;6204328;28;20891;-79
2023/05/02 10:34:05;;;;;;;5.70;5.30;;;14.30;62.20;;;;;;6206075;28;20236;-77
2023/05/02 10:37:08;;;;;;;5.13;4.77;;;14.30;62.20;;;;;;6217380;28;20222;-80
2023/05/02 10:40:12;;;;;;;6.33;4.33;;;14.50;62.00;;;;;;6209865;28;20237;-79
2023/05/02 10:43:16;;;;;;;4.10;4.00;;;14.60;61.20;;;;;;6223140;28;20227;-80
2023/05/02 10:46:31;;;;;;;4.67;4.37;;;14.50;60.90;;;;;;6226320;28;20693;-79
2023/05/02 10:49:50;;;;;;;4.30;4.10;;;14.20;61.70;;;;;;6243717;28;20289;-81
2023/05/02 10:52:53;;;;;;;4.23;4.13;;;13.90;62.20;;;;;;6236834;28;20487;-81
2023/05/02 10:56:14;;;;;;;3.93;3.77;;;13.70;62.50;;;;;;6220931;28;20239;-78
2023/05/02 10:59:28;;;;;;;4.53;4.10;;;13.50;63.20;;;;;;6223821;28;20293;-79
2023/05/02 11:02:51;;;;;;;4.53;4.30;;;13.50;63.60;;;;;;6214265;28;20246;-79
2023/05/02 11:06:05;;;;;;;5.93;5.20;;;13.50;63.00;;;;;;6203182;28;20877;-80
2023/05/02 11:09:35;;;;;;;4.77;4.50;;;13.10;63.60;;;;;;6204869;28;20256;-79
2023/05/02 11:12:47;;;;;;;5.67;5.17;;;13.00;63.30;;;;;;6201666;28;20286;-80
2023/05/02 11:15:59;;;;;;;6.20;5.60;;;13.00;63.10;;;;;;6203315;28;20247;-80
2023/05/02 11:19:04;;;;;;;9.27;6.50;;;12.80;63.70;;;;;;6215874;28;20242;-81
2023/05/02 11:22:31;;;;;;;10.67;6.80;;;12.50;64.00;;;;;;6234201;28;20240;-77
2023/05/02 11:25:36;;;;;;;7.83;7.13;;;12.50;63.60;;;;;;6234066;28;20246;-80
2023/05/02 11:28:41;;;;;;;10.60;6.90;;;12.40;63.90;;;;;;6233403;28;20242;-78
2023/05/02 11:32:03;;;;;;;6.97;6.27;;;12.50;63.40;;;;;;6232984;28;20669;-78
2023/05/02 11:35:08;;;;;;;9.03;6.83;;;12.90;62.20;;;;;;6230130;28;20849;-78
2023/05/02 11:38:13;;;;;;;8.80;6.10;;;13.20;61.00;;;;;;6257492;28;20435;-81
2023/05/02 11:41:16;;;;;;;11.70;6.60;;;13.30;60.20;;;;;;6234022;28;20246;-80
2023/05/02 11:44:19;;;;;;;7.57;5.90;;;13.20;59.80;;;;;;6226171;28;20318;-78
2023/05/02 11:47:23;;;;;;;8.17;5.63;;;13.50;58.70;;;;;;6234807;28;20239;-80
2023/05/02 11:50:29;;;;;;;9.37;5.13;;;13.30;58.60;;;;;;6240082;28;20244;-78
2023/05/02 11:53:32;;;;;;;8.50;5.57;;;13.20;58.10;;;;;;6237086;28;20862;-80
2023/05/02 11:56:35;;;;;;;6.60;5.03;;;13.30;58.10;;;;;;6237610;28;20715;-80
2023/05/02 11:59:50;;;;;;;5.10;4.60;;;13.50;57.30;;;;;;6242177;28;20233;-78
2023/05/02 12:02:53;;;;;;;5.57;4.63;;;13.50;56.90;;;;;;6229684;28;20247;-77
2023/05/02 12:06:08;;;;;;;6.53;4.53;;;13.60;56.30;;;;;;6240959;28;20239;-80
2023/05/02 12:09:15;;;;;;;5.03;4.40;;;13.60;56.20;;;;;;6239647;28;20301;-78
2023/05/02 12:12:20;;;;;;;7.10;4.80;;;13.50;56.80;;;;;;6241281;28;20273;-77
2023/05/02 12:15:24;;;;;;;4.23;4.03;;;13.50;56.60;;;;;;6240367;28;20223;-80
2023/05/02 12:18:28;;;;;;;7.60;4.57;;;13.10;56.20;;;;;;6239653;28;20840;-78
2023/05/02 12:21:32;;;;;;;4.30;3.73;;;13.20;55.80;;;;;;6229385;28;20239;-79
2023/05/02 12:24:35;;;;;;;5.30;4.33;;;13.20;56.70;;;;;;6232178;28;20242;-78
2023/05/02 12:27:38;;;;;;;11.10;4.97;;;13.30;56.40;;;;;;6243592;28;20246;-78
2023/05/02 12:30:41;;;;;;;5.07;4.67;;;13.30;56.60;;;;;;6235859;28;20226;-78
2023/05/02 12:33:49;;;;;;;12.23;5.17;;;13.40;56.30;;;;;;6248896;28;20237;-80
2023/05/02 12:36:53;;;;;;;9.37;4.47;;;13.50;55.50;;;;;;6260844;28;20234;-78
2023/05/02 12:39:58;;;;;;;7.57;4.77;;;13.60;55.50;;;;;;6232002;28;20318;-81
2023/05/02 12:43:05;;;;;;;8.57;4.83;;;13.90;55.00;;;;;;6241950;28;20242;-79
2023/05/02 12:46:11;;;;;;;6.53;4.30;;;14.00;54.70;;;;;;6232496;28;20864;-80
2023/05/02 12:49:16;;;;;;;9.10;5.47;;;14.00;55.20;;;;;;6244927;28;20346;-78
2023/05/02 12:52:21;;;;;;;6.47;5.00;;;14.30;55.00;;;;;;6241006;28;20234;-80
2023/05/02 12:55:26;;;;;;;5.40;4.57;;;14.30;54.60;;;;;;6252071;28;20309;-78
2023/05/02 12:58:29;;;;;;;6.73;5.03;;;14.60;53.30;;;;;;6230688;28;20251;-79
2023/05/02 13:01:33;;;;;;;8.50;5.40;;;14.60;53.70;;;;;;6237098;28;20235;-80
2023/05/02 13:04:39;;;;;;;10.93;5.33;;;14.20;53.30;;;;;;6227508;28;20926;-79
2023/05/02 13:07:44;;;;;;;7.20;5.53;;;13.70;54.60;;;;;;6239641;28;20239;-79
2023/05/02 13:10:47;;;;;;;10.30;5.13;;;13.50;54.40;;;;;;6234462;28;20746;-78
2023/05/02 13:13:50;;;;;;;6.83;5.10;;;13.30;54.80;;;;;;6242433;28;20642;-80
2023/05/02 13:16:53;;;;;;;8.47;5.63;;;13.30;54.70;;;;;;6233368;28;20773;-79
2023/05/02 13:19:57;;;;;;;9.53;4.97;;;13.50;54.70;;;;;;6245462;28;20882;-77
2023/05/02 13:23:05;;;;;;;7.30;5.00;;;13.70;54.30;;;;;;6217970;28;20735;-80
2023/05/02 13:26:09;;;;;;;7.83;5.30;;;13.90;54.00;;;;;;6243772;28;20241;-79
2023/05/02 13:29:12;;;;;;;12.37;5.23;;;14.20;53.00;;;;;;6242285;28;20280;-78
2023/05/02 13:32:15;;;;;;;12.33;5.50;;;14.30;53.40;;;;;;6233181;28;20242;-79
2023/05/02 13:35:18;;;;;;;10.57;5.17;;;14.60;52.60;;;;;;6235736;28;20856;-80
2023/05/02 13:38:23;;;;;;;7.63;4.90;;;14.60;51.70;;;;;;6238816;28;20728;-79
2023/05/02 13:41:26;;;;;;;5.47;4.40;;;14.50;52.20;;;;;;6246085;28;20372;-80
2023/05/02 13:44:30;;;;;;;5.63;5.00;;;14.40;51.90;;;;;;6251252;28;20663;-79
2023/05/02 13:47:33;;;;;;;5.50;4.97;;;14.40;51.10;;;;;;6232602;28;20314;-79
2023/05/02 13:50:37;;;;;;;5.37;4.70;;;13.90;51.80;;;;;;6236311;28;20235;-78
2023/05/02 13:53:42;;;;;;;5.00;4.60;;;13.50;52.50;;;;;;6232700;28;20244;-79
2023/05/02 13:56:45;;;;;;;7.33;5.23;;;13.50;52.60;;;;;;6231954;28;20227;-79
2023/05/02 13:59:48;;;;;;;7.93;4.97;;;13.80;52.60;;;;;;6238986;28;20361;-78
2023/05/02 14:02:51;;;;;;;6.87;5.30;;;13.90;52.00;;;;;;6244840;28;20246;-78
2023/05/02 14:05:54;;;;;;;6.60;4.53;;;14.10;51.80;;;;;;6233860;28;20776;-80
2023/05/02 14:08:59;;;;;;;7.10;5.07;;;13.90;51.50;;;;;;6239811;28;20247;-81
2023/05/02 14:12:02;;;;;;;7.27;5.17;;;13.60;52.00;;;;;;6227707;28;20254;-80
2023/05/02 14:15:06;;;;;;;8.07;5.07;;;13.20;52.70;;;;;;6225219;28;20246;-79
2023/05/02 14:18:09;;;;;;;8.40;5.20;;;13.20;52.90;;;;;;6234711;28;20239;-80
2023/05/02 14:21:12;;;;;;;5.47;4.80;;;13.20;52.20;;;;;;6235438;28;20246;-83
2023/05/02 14:24:18;;;;;;;5.03;4.63;;;13.10;52.20;;;;;;6222257;28;20315;-79
2023/05/02 14:27:21;;;;;;;6.47;5.10;;;13.20;52.10;;;;;;6220707;28;20237;-78
2023/05/02 14:30:24;;;;;;;6.50;5.47;;;13.10;52.40;;;;;;6212103;28;20633;-81
2023/05/02 14:33:27;;;;;;;8.20;5.30;;;13.00;52.90;;;;;;6211738;28;20267;-80
2023/05/02 14:36:31;;;;;;;6.57;4.90;;;12.70;53.10;;;;;;6236516;28;20235;-80
2023/05/02 14:39:36;;;;;;;7.57;5.13;;;12.90;52.80;;;;;;6237144;28;20630;-78
2023/05/02 14:42:39;;;;;;;6.83;4.90;;;12.60;52.80;;;;;;6235666;28;20239;-79
2023/05/02 14:45:42;;;;;;;5.30;4.80;;;12.50;52.70;;;;;;6236033;28;20335;-79
2023/05/02 14:48:44;;;;;;;5.73;4.57;;;12.50;52.80;;;;;;6243545;28;20234;-79
2023/05/02 14:51:47;;;;;;;9.13;4.90;;;12.50;52.70;;;;;;6235888;28;20249;-78
2023/05/02 14:54:52;;;;;;;7.17;5.03;;;12.10;52.90;;;;;;6244710;28;20250;-79
2023/05/02 14:57:55;;;;;;;7.50;4.80;;;12.00;53.50;;;;;;6240680;28;20257;-79
2023/05/02 15:01:00;;;;;;;5.37;4.87;;;11.90;53.40;;;;;;6242911;28;20308;-80
2023/05/02 15:04:03;;;;;;;6.50;4.77;;;11.80;53.50;;;;;;6231278;28;20278;-80
2023/05/02 15:07:10;;;;;;;6.20;4.73;;;11.70;53.60;;;;;;6245270;28;20248;-81
2023/05/02 15:10:14;;;;;;;4.67;4.33;;;11.60;53.70;;;;;;6227983;28;20243;-79
2023/05/02 15:13:18;;;;;;;5.17;4.63;;;11.50;54.10;;;;;;6238493;28;20234;-79
2023/05/02 15:16:21;;;;;;;8.27;5.00;;;11.50;53.50;;;;;;6227793;28;20246;-76
2023/05/02 15:19:24;;;;;;;4.63;4.30;;;11.50;53.80;;;;;;6224063;28;20629;-77
2023/05/02 15:22:27;;;;;;;10.23;5.20;;;11.50;53.70;;;;;;6238220;28;20635;-79
2023/05/02 15:25:31;;;;;;;6.20;4.90;;;11.50;53.40;;;;;;6258640;28;20222;-79
2023/05/02 15:28:34;;;;;;;9.47;4.60;;;11.30;53.70;;;;;;6231584;28;20226;-81
2023/05/02 15:31:38;;;;;;;6.13;4.60;;;11.30;53.90;;;;;;6234337;28;20231;-83
2023/05/02 15:34:41;;;;;;;8.47;4.80;;;11.50;53.30;;;;;;6235529;28;20242;-86
2023/05/02 15:37:44;;;;;;;7.13;4.83;;;11.90;52.60;;;;;;6232818;28;20364;-86
2023/05/02 15:40:55;;;;;;;6.67;4.80;;;11.90;52.50;;;;;;6230372;28;20316;-82
2023/05/02 15:43:59;;;;;;;9.50;5.50;;;11.90;51.80;;;;;;6240260;28;20227;-87
2023/05/02 15:47:02;;;;;;;6.67;5.03;;;11.70;52.70;;;;;;6231842;28;20261;-84
2023/05/02 15:50:06;;;;;;;5.90;5.07;;;11.70;52.60;;;;;;6235084;28;20238;-83
2023/05/02 15:53:09;;;;;;;4.67;4.27;;;11.70;52.00;;;;;;6231905;28;20300;-83
2023/05/02 15:56:14;;;;;;;4.83;4.30;;;11.50;52.20;;;;;;6235562;28;20285;-85
2023/05/02 15:59:17;;;;;;;7.07;5.07;;;11.50;52.30;;;;;;6239775;28;20410;-85
2023/05/02 16:02:20;;;;;;;7.90;5.10;;;11.50;52.00;;;;;;6231688;28;20239;-85